Sarcobatus Flat, Nevada Weather observations

Data are for observation ending at time listed.
 Day   Time    Ave.   Ave.  Ave.  Vector   Max.   Stn.    Total    Solar   Ave.  
  of    of     Air    Rel.  Wind   Wind    Wind   Baro.  Precip.   Rad.    Soil  
Year   Day     Temp.  Hum.  Speed  Dir.    Gust   Pres.                    Temp. 
2015   (PST)    F      %     mph   deg.    mph     mb.     in.     W/m2     F   
------------------------------------------------------------------------------
 148   13:10   85.4    14    8.8   162     19.4   876.8    0.00     283    999.0
 148   13:20   85.2    14    9.4   151     18.0   876.7    0.00     701    999.0
 148   13:30   85.5    14    5.5   107     12.3   876.7    0.00     677    999.0
 148   13:40   85.8    14    3.7   348      9.2   876.6    0.00     906    999.0
 148   13:50   87.7    13    8.5   206     22.7   876.5    0.00    1045    999.0
 148   14:00   87.8    13    9.4   196     17.6   876.5    0.00     780    999.0
 148   14:10   87.7    13    9.1   227     17.4   876.4    0.00    1021    999.0
 148   14:20   88.3    12    7.6   240     14.8   876.4    0.00     983    999.0
 148   14:30   87.5    12    9.3   171     16.5   876.2    0.00     854    999.0
 148   14:40   86.7    12    8.7   149     17.2   876.2    0.00     777    999.0
 148   14:50   87.6    12    2.1    98      6.3   876.0    0.00     820    999.0
 148   15:00   87.7    12    7.9   135     17.5   875.9    0.00     743    999.0
 148   15:10   87.1    12   10.6   133     17.1   875.9    0.00     749    999.0
 148   15:20   87.6    12    7.8   134     15.4   875.9    0.00     703    999.0
 148   15:30   87.2    12    5.6   184     11.6   875.8    0.00     603    999.0
 148   15:40   87.1    12    9.0   119     14.8   875.7    0.00     448    999.0
 148   15:50   86.4    12    5.9   190     10.8   875.7    0.00     216    999.0
 148   16:00   86.1    12    7.4   205     12.9   875.7    0.00     177    999.0
 148   16:10   85.9    12    7.2   216     11.3   875.8    0.00     180    999.0
 148   16:20   85.7    12    6.8   206     10.4   875.8    0.00     207    999.0
 148   16:30   85.7    12    6.5   236     11.0   875.7    0.00     218    999.0
 148   16:40   85.9    12    8.4   256     12.6   875.7    0.00     260    999.0
 148   16:50   85.8    12    4.7   272      9.6   875.7    0.00     203    999.0
 148   17:00   85.9    12    5.1   259     12.0   875.7    0.00     164    999.0
 148   17:10   85.3    13    6.7   248     12.2   875.7    0.00     134    999.0
 148   17:20   85.0    13    9.4   248     14.5   875.7    0.00     116    999.0
 148   17:30   84.8    13    8.4   233     13.0   875.7    0.00     109    999.0
 148   17:40   84.8    14    8.6   241     12.1   875.7    0.00     106    999.0
 148   17:50   84.6    14    8.3   245     12.2   875.7    0.00     108    999.0
 148   18:00   84.5    14    7.9   247     12.1   875.7    0.00      95    999.0
 148   18:10   84.3    14    7.5   255     11.1   875.8    0.00      76    999.0
 148   18:20   83.9    14    7.4   246     11.5   875.8    0.00      59    999.0
 148   18:30   83.4    15    8.4   250     11.3   875.9    0.00      42    999.0
 148   18:40   82.8    15    7.2   253      9.8   876.0    0.00      26    999.0
 148   18:50   82.2    15    6.2   254      9.5   876.0    0.00      14    999.0
 148   19:00   81.5    16    6.3   245      8.7   876.1    0.00       6    999.0
 148   19:10   80.6    16    6.2   243      9.5   876.2    0.00       2    999.0
 148   19:20   79.8    17    5.9   245      8.4   876.3    0.00       1    999.0
 148   19:30   79.4    17    7.0   248      9.9   876.3    0.00       0    999.0
 148   19:40   79.1    17    7.4   252     10.4   876.4    0.00       0    999.0
 148   19:50   78.8    17    7.4   253     10.6   876.5    0.00       0    999.0
 148   20:00   78.3    17    6.1   255      9.5   876.6    0.00       0    999.0
 148   20:10   77.7    18    3.1   242      6.6   876.8    0.00       0    999.0
 148   20:20   75.5    20    4.4    92      6.7   877.0    0.00       0    999.0
 148   20:30   77.1    18    5.0   137      7.9   877.2    0.00       0    999.0
 148   20:40   77.7    18    5.3   141      8.8   877.3    0.00       0    999.0
 148   20:50   77.2    18    2.8   148      4.3   877.4    0.00       0    999.0
 148   21:00   76.2    19    1.7   168      3.4   877.4    0.00       0    999.0
 148   21:10   77.0    18    2.5   203      5.7   877.5    0.00       0    999.0
 148   21:20   74.1    20    0.0    58      0.9   877.5    0.00       0    999.0
 148   21:30   73.5    21    1.6   335      3.1   877.6    0.00       0    999.0
 148   21:40   70.9    24    1.5   351      4.1   877.7    0.00       0    999.0
 148   21:50   69.0    26    5.8   341      9.1   877.9    0.00       0    999.0
 148   22:00   69.0    27    3.1    10      5.8   877.8    0.00       0    999.0
 148   22:10   68.6    27    2.9     7      5.6   877.8    0.00       0    999.0
 148   22:20   68.9    26    3.9    32      5.5   877.7    0.00       0    999.0
 148   22:30   68.0    27    2.4    44      7.8   877.7    0.00       0    999.0
 148   22:40   66.0    30    1.1   304      7.1   877.7    0.00       0    999.0
 148   22:50   65.5    31    0.6   323      2.4   877.7    0.00       0    999.0
 148   23:00   65.4    31    2.7    20      6.4   877.8    0.00       0    999.0
 148   23:10   66.7    29    4.6   353      6.2   877.9    0.00       0    999.0
 148   23:20   65.6    31    4.7   335      6.4   877.8    0.00       0    999.0
 148   23:30   64.5    32    3.6   359      4.9   877.8    0.00       0    999.0
 148   23:40   63.7    33    3.2    10      4.4   877.9    0.00       0    999.0
 148   23:50   63.8    33    3.1    44      5.0   877.9    0.00       0    999.0
 149    0:00   62.8    34    2.1   286      3.5   877.9    0.00       0    999.0
 149    0:10   62.3    34    3.7   255      4.7   877.9    0.00       0    999.0
 149    0:20   63.1    32    4.2   280      4.8   877.9    0.00       0    999.0
 149    0:30   63.7    30    5.7   303      7.5   877.9    0.00       0    999.0
 149    0:40   64.3    27    7.9   312      9.5   877.8    0.00       0    999.0
 149    0:50   65.4    24    7.4   316      9.3   877.7    0.00       0    999.0
 149    1:00   66.5    23    7.9   320     10.0   877.7    0.00       0    999.0
 149    1:10   67.6    22    5.4   333      9.2   877.8    0.00       0    999.0
 149    1:20   64.7    25    2.4   113      4.3   877.9    0.00       0    999.0
 149    1:30   65.4    25    1.2    74      2.3   878.0    0.00       0    999.0
 149    1:40   62.8    28    0.8   248      3.4   878.0    0.00       0    999.0
 149    1:50   64.3    25    3.5   326      5.3   878.0    0.00       0    999.0
 149    2:00   63.9    26    3.2     4      4.5   878.0    0.00       0    999.0
 149    2:10   62.7    27    4.2    42      5.7   878.1    0.00       0    999.0
 149    2:20   62.0    28    2.8    51      4.0   878.1    0.00       0    999.0
 149    2:30   61.9    28    2.5    24      3.9   878.2    0.00       0    999.0
 149    2:40   62.1    28    3.9   338      4.7   878.2    0.00       0    999.0
 149    2:50   59.3    33    3.9   202      6.9   878.3    0.00       0    999.0
 149    3:00   56.6    38    4.9   207      7.0   878.3    0.00       0    999.0
 149    3:10   57.1    36    2.7   123      4.6   878.5    0.00       0    999.0
 149    3:20   57.1    36    2.9   175      4.9   878.4    0.00       0    999.0
 149    3:30   58.8    33    1.5   270      4.3   878.5    0.00       0    999.0
 149    3:40   59.5    33    2.0   296      3.4   878.5    0.00       0    999.0
 149    3:50   56.7    38    3.6   280      5.7   878.5    0.00       0    999.0
 149    4:00   56.9    38    3.0   324      4.5   878.7    0.00       0    999.0
 149    4:10   57.6    37    3.2   354      5.3   878.7    0.00       0    999.0
 149    4:20   56.6    38    1.6     1      3.7   878.8    0.00       0    999.0
 149    4:30   57.1    37    2.3    14      5.5   878.9    0.00       2    999.0
 149    4:40   56.3    39    2.2    20      3.8   879.0    0.00       6    999.0
 149    4:50   56.3    39    4.0   358      8.8   879.1    0.00      12    999.0
 149    5:00   60.6    34    4.0   356      8.0   879.2    0.00      19    999.0
 149    5:10   60.2    36    3.3   329      5.8   879.2    0.00      40    999.0
 149    5:20   59.7    37    4.8   311      7.1   879.3    0.00      63    999.0
 149    5:30   62.4    33    7.4   325     10.9   879.3    0.00     126    999.0
 149    5:40   64.5    31    4.3   355      9.6   879.5    0.00     155    999.0
 149    5:50   65.3    30    6.5   340     11.2   879.5    0.00     185    999.0
 149    6:00   66.5    29    4.6   358      9.1   879.6    0.00     217    999.0
 149    6:10   67.0    29    1.3    73      4.6   879.6    0.00     250    999.0
 149    6:20   68.5    27    0.8    80      1.8   879.6    0.00     283    999.0
 149    6:30   69.4    27    1.3    88      2.3   879.6    0.00     318    999.0
 149    6:40   71.3    25    0.6    78      1.9   879.7    0.00     353    999.0
 149    6:50   72.0    24    1.3   128      2.6   879.7    0.00     386    999.0
 149    7:00   74.4    23    1.3   208      2.5   879.6    0.00     421    999.0
 149    7:10   75.6    22    1.2   242      4.1   879.6    0.00     455    999.0
 149    7:20   77.0    21    1.5    22      4.2   879.7    0.00     490    999.0
 149    7:30   76.7    21    2.2    69      3.6   879.7    0.00     523    999.0
 149    7:40   77.9    19    0.8    48      2.9   879.8    0.00     555    999.0
 149    7:50   78.4    18    2.0   108      3.9   879.7    0.00     586    999.0
 149    8:00   78.6    18    1.5   146      4.4   879.7    0.00     618    999.0
 149    8:10   78.9    18    1.5   174      4.1   879.7    0.00     651    999.0
 149    8:20   80.2    16    1.0   196      3.6   879.7    0.00     677    999.0
 149    8:30   79.8    16    4.1   136      7.2   879.6    0.00     706    999.0
 149    8:40   79.8    16    4.7   139     11.1   879.6    0.00     733    999.0
 149    8:50   80.2    15    5.3   144     12.1   879.5    0.00     761    999.0
 149    9:00   80.3    15    3.4   136      7.5   879.5    0.00     791    999.0
 149    9:10   81.1    15    4.5   144      9.6   879.4    0.00     821    999.0
 149    9:20   81.2    14    6.5   157     10.7   879.3    0.00     842    999.0
 149    9:30   81.5    14    2.9   172      7.2   879.3    0.00     865    999.0
 149    9:40   82.7    14    5.1   150     10.0   879.2    0.00     886    999.0
 149    9:50   82.4    14    5.5   164     12.6   879.3    0.00     897    999.0
 149   10:00   82.6    13    5.8   156     11.2   879.2    0.00     929    999.0
 149   10:10   83.7    13    1.5   202      4.2   879.2    0.00     948    999.0
 149   10:20   84.5    12    6.1   136     11.8   879.1    0.00     962    999.0
 149   10:30   84.5    12    3.8   112      8.1   879.0    0.00     975    999.0
 149   10:40   85.1    12    8.1   163     12.6   878.9    0.00     990    999.0
 149   10:50   84.8    12    4.9   161     10.4   878.8    0.00    1001    999.0
 149   11:00   85.4    12    8.4   129     16.4   878.8    0.00    1006    999.0
 149   11:10   85.5    12    6.5   139     16.4   878.8    0.00    1023    999.0
 149   11:20   86.4    12    6.1   198     16.0   878.7    0.00    1026    999.0
 149   11:30   87.0    12    5.3   166     11.6   878.5    0.00    1032    999.0
 149   11:40   87.2    12    7.2   215     15.9   878.3    0.00    1035    999.0
 149   11:50   87.5    12    8.4   194     17.1   878.3    0.00    1033    999.0
 149   12:00   87.5    12    7.3   168     19.6   878.2    0.00    1034    999.0
 149   12:10   88.1    11   12.1   148     20.8   878.0    0.00    1035    999.0
 149   12:20   88.2    11   11.7   133     19.6   877.8    0.00    1027    999.0
 149   12:30   87.9    11   11.3   142     26.5   877.8    0.00    1025    999.0
 149   12:40   89.0    11   13.0   179     22.5   877.7    0.00    1018    999.0
 149   12:50   89.2    10   11.9   144     24.3   877.6    0.00    1005    999.0
 149   13:00   89.2    11   16.5   138     24.9   877.4    0.00     992    999.0

Return to Sarcobatus Flat, Nevada graphs page.


Western Regional Climate Center,wrcc@dri.edu